Latest Weather Observations for Hunters Hill

IDV60801

Issued at 5:02 pm EST Saturday 30 April 2016 (issued every 30 minutes, with the page automatically refreshed every 10 minutes)

About weather observations | Map of weather stations | Latest weather observations for VIC | Other Formats
Station Details ID: 082139 Name: HUNTERS HILL Lat: -36.21 Lon: 147.54 Height: 981.0 m
Data from the previous 72 hours. | See also: Recent months at Hunters Hill
Date/Time
EST
Temp
°C
App
Temp
°C
Dew
Point
Rel
Hum
%
Delta-T
°C
Wind Press
QNH
hPa
Press
MSL
hPa
Rain
since 9 am
mm
Dir
 
Spd
km/h
Gust
km/h
Spd
kts
Gust
kts
30/05:00pm 14.3 14.3 14.3 100 0.0 N 7 15 4 8 - - 2.6
30/04:30pm 15.0 15.4 14.8 99 0.1 N 6 13 3 7 - - 2.6
30/04:00pm 14.6 14.9 14.6 100 0.0 N 6 13 3 7 - - 2.6
30/03:30pm 14.7 15.1 14.7 100 0.0 N 6 15 3 8 - - 2.6
30/03:00pm 15.1 16.0 15.1 100 0.0 N 4 11 2 6 - - 2.6
30/02:30pm 14.8 15.2 14.8 100 0.0 N 6 9 3 5 - - 2.6
30/02:00pm 14.3 14.9 14.3 100 0.0 NW 4 11 2 6 - - 2.6
30/01:30pm 14.1 14.1 14.1 100 0.0 NW 7 13 4 7 - - 2.6
30/01:00pm 14.1 14.1 14.1 100 0.0 NNW 7 17 4 9 - - 2.6
30/12:30pm 14.0 13.9 14.0 100 0.0 NNW 7 13 4 7 - - 2.4
30/12:00pm 13.8 13.7 13.8 100 0.0 NW 7 15 4 8 - - 2.4
30/11:30am 13.4 13.1 13.4 100 0.0 NNW 7 19 4 10 - - 2.4
30/11:00am 13.4 12.4 13.4 100 0.0 NNW 11 22 6 12 - - 2.4
30/10:30am 13.5 12.9 13.5 100 0.0 NNW 9 20 5 11 - - 1.6
30/10:00am 13.4 12.8 13.4 100 0.0 NNW 9 19 5 10 - - 1.2
30/09:30am 13.5 13.5 13.5 100 0.0 N 6 13 3 7 - - 0.6
30/09:00am 13.2 12.9 13.2 100 0.0 N 7 15 4 8 - - 12.4
30/08:30am 13.2 13.1 13.2 100 0.0 NNW 6 15 3 8 - - 12.4
30/08:00am 13.0 12.8 13.0 100 0.0 N 6 13 3 7 - - 12.4
30/07:30am 12.9 12.7 12.9 100 0.0 N 6 13 3 7 - - 12.4
30/07:00am 12.8 12.5 12.8 100 0.0 N 6 9 3 5 - - 12.4
30/06:30am 12.6 12.7 12.6 100 0.0 N 4 9 2 5 - - 12.2
30/06:00am 12.5 12.5 12.5 100 0.0 NW 4 7 2 4 - - 12.2
30/05:30am 12.4 12.8 12.4 100 0.0 NW 2 6 1 3 - - 12.2
30/05:00am 12.4 11.8 12.4 100 0.0 NW 7 13 4 7 - - 12.2
30/04:30am 12.6 12.3 12.6 100 0.0 WNW 6 11 3 6 - - 12.2
30/04:00am 12.5 12.0 12.5 100 0.0 NW 7 13 4 7 - - 11.6
30/03:30am 12.5 11.6 12.5 100 0.0 NW 9 20 5 11 - - 11.6
30/03:00am 12.5 11.6 12.5 100 0.0 NNW 9 19 5 10 - - 11.2
30/02:30am 12.6 12.1 12.6 100 0.0 NNW 7 11 4 6 - - 11.0
30/02:00am 12.5 12.0 12.5 100 0.0 NNW 7 15 4 8 - - 11.0
30/01:30am 12.6 12.1 12.6 100 0.0 NW 7 20 4 11 - - 10.8
30/01:00am 12.5 12.0 12.5 100 0.0 N 7 19 4 10 - - 10.6
30/12:30am 12.4 12.0 12.4 100 0.0 NNW 6 11 3 6 - - 10.6
30/12:00am 12.4 11.4 12.4 100 0.0 NNW 9 17 5 9 - - 10.6
 
Date/Time
EST
Temp
°C
App
Temp
°C
Dew
Point
Rel
Hum
%
Delta-T
°C
Wind Press
QNH
hPa
Press
MSL
hPa
Rain
since 9 am
mm
Dir
 
Spd
km/h
Gust
km/h
Spd
kts
Gust
kts
29/11:30pm 12.5 12.0 12.5 100 0.0 N 7 13 4 7 - - 10.6
29/11:00pm 12.4 12.0 12.4 100 0.0 N 6 17 3 9 - - 10.6
29/10:30pm 12.5 12.1 12.5 100 0.0 NNW 6 13 3 7 - - 10.2
29/10:00pm 12.5 12.0 12.5 100 0.0 N 7 15 4 8 - - 10.2
29/09:30pm 12.4 11.4 12.4 100 0.0 NNW 9 19 5 10 - - 10.2
29/09:00pm 12.5 12.0 12.5 100 0.0 NNW 7 19 4 10 - - 10.0
29/08:30pm 12.4 11.8 12.4 100 0.0 N 7 15 4 8 - - 10.0
29/08:00pm 12.4 11.8 12.4 100 0.0 N 7 17 4 9 - - 9.8
29/07:30pm 12.4 12.0 12.4 100 0.0 N 6 15 3 8 - - 9.0
29/07:00pm 12.4 11.8 12.4 100 0.0 N 7 19 4 10 - - 7.6
29/06:30pm 12.4 11.8 12.4 100 0.0 N 7 19 4 10 - - 6.2
29/06:00pm 12.4 11.1 12.4 100 0.0 N 11 22 6 12 - - 5.4
29/05:30pm 12.4 11.4 12.4 100 0.0 N 9 19 5 10 - - 4.8
29/05:00pm 12.4 11.1 12.4 100 0.0 NNW 11 24 6 13 - - 4.0
29/04:30pm 12.4 11.4 12.4 100 0.0 NW 9 20 5 11 - - 3.2
29/04:00pm 12.5 10.4 12.5 100 0.0 WNW 15 26 8 14 - - 0.4
29/03:30pm 12.8 10.8 12.8 100 0.0 W 15 30 8 16 - - 0.2
29/03:00pm 14.2 12.0 12.2 88 1.1 W 15 30 8 16 - - 0.0
29/02:30pm 14.4 12.6 11.0 80 1.9 W 11 22 6 12 - - 0.0
29/02:00pm 14.5 11.4 10.3 76 2.3 W 17 37 9 20 - - 0.0
29/01:30pm 15.6 12.2 9.1 65 3.5 WNW 17 41 9 22 - - 0.0
29/01:00pm 17.9 14.4 7.3 50 5.6 N 15 35 8 19 - - 0.0
29/12:30pm 17.9 14.6 7.9 52 5.4 N 15 32 8 17 - - 0.0
29/12:00pm 19.4 17.1 9.0 51 5.7 NNE 11 20 6 11 - - 0.0
29/11:30am 18.2 15.8 8.5 53 5.3 N 11 20 6 11 - - 0.0
29/11:00am 17.9 16.4 9.3 57 4.7 N 7 15 4 8 - - 0.0
29/10:30am 18.4 16.8 8.9 54 5.2 NNE 7 13 4 7 - - 0.0
29/10:00am 17.7 15.7 8.6 55 4.9 NNE 9 19 5 10 - - 0.0
29/09:30am 16.6 14.7 9.1 61 4.1 NNE 9 15 5 8 - - 0.0
29/09:00am 15.1 13.9 9.5 69 3.0 NNE 6 9 3 5 - - 0.0
29/08:30am 14.7 13.4 9.3 70 2.9 NNE 6 11 3 6 - - 0.0
29/08:00am 14.4 13.2 9.4 72 2.7 NNE 6 9 3 5 - - 0.0
29/07:30am 13.8 12.3 9.3 74 2.4 NNE 7 15 4 8 - - 0.0
29/07:00am 13.4 11.9 9.1 75 2.3 NNE 7 11 4 6 - - 0.0
29/06:30am 13.7 12.2 9.2 74 2.4 NNE 7 11 4 6 - - 0.0
29/06:00am 14.2 12.7 9.2 72 2.7 NNE 7 17 4 9 - - 0.0
29/05:30am 13.8 12.3 9.0 73 2.6 NNE 7 13 4 7 - - 0.0
29/05:00am 13.7 12.1 8.7 72 2.7 NNE 7 13 4 7 - - 0.0
29/04:30am 13.9 12.3 8.7 71 2.8 NNE 7 13 4 7 - - 0.0
29/04:00am 13.4 11.8 7.8 69 2.9 NNE 6 13 3 7 - - 0.0
29/03:30am 13.7 11.8 7.5 66 3.2 NNE 7 13 4 7 - - 0.0
29/03:00am 14.3 12.0 7.6 64 3.5 NNE 9 15 5 8 - - 0.0
29/02:30am 14.5 12.5 7.3 62 3.7 NNE 7 13 4 7 - - 0.0
29/02:00am 14.6 12.9 7.4 62 3.7 NNE 6 9 3 5 - - 0.0
29/01:30am 14.6 13.2 7.2 61 3.8 NNE 4 6 2 3 - - 0.0
29/01:00am 14.6 12.7 6.9 60 4.0 NNE 6 11 3 6 - - 0.0
29/12:30am 14.8 12.9 6.9 59 4.1 NE 6 9 3 5 - - 0.0
29/12:00am 14.8 12.9 6.6 58 4.2 NE 6 9 3 5 - - 0.0
 
Date/Time
EST
Temp
°C
App
Temp
°C
Dew
Point
Rel
Hum
%
Delta-T
°C
Wind Press
QNH
hPa
Press
MSL
hPa
Rain
since 9 am
mm
Dir
 
Spd
km/h
Gust
km/h
Spd
kts
Gust
kts
28/11:30pm 15.1 13.2 6.9 58 4.2 NE 6 9 3 5 - - 0.0
28/11:00pm 15.3 13.4 6.8 57 4.4 NE 6 7 3 4 - - 0.0
28/10:30pm 15.3 13.5 7.1 58 4.3 NNE 6 9 3 5 - - 0.0
28/10:00pm 15.6 13.7 6.9 56 4.5 NNE 6 9 3 5 - - 0.0
28/09:30pm 15.8 13.7 6.8 55 4.7 NNE 7 13 4 7 - - 0.0
28/09:00pm 15.8 13.7 6.8 55 4.7 NNE 7 11 4 6 - - 0.0
28/08:30pm 15.7 13.9 7.2 57 4.4 NE 6 11 3 6 - - 0.0
28/08:00pm 15.8 14.0 7.3 57 4.4 NE 6 9 3 5 - - 0.0
28/07:30pm 15.8 14.1 7.6 58 4.3 NNE 6 9 3 5 - - 0.0
28/07:00pm 15.5 14.7 8.0 61 4.0 NNE 2 4 1 2 - - 0.0
28/06:30pm 15.7 14.9 8.0 60 4.1 NNE 2 6 1 3 - - 0.0
28/06:00pm 16.2 15.3 7.9 58 4.4 NNE 2 4 1 2 - - 0.0
28/05:30pm 16.8 15.5 7.7 55 4.8 NNE 4 6 2 3 - - 0.0
28/05:00pm 16.9 16.5 8.1 56 4.7 CALM 0 0 0 0 - - 0.0
28/04:30pm 17.3 16.4 7.9 54 5.0 NNE 2 6 1 3 - - 0.0
28/04:00pm 18.8 18.0 8.2 50 5.7 NNE 2 7 1 4 - - 0.0
28/03:30pm 18.4 17.2 8.1 51 5.6 NNE 4 9 2 5 - - 0.0
28/03:00pm 18.8 17.0 7.3 47 6.1 N 6 11 3 6 - - 0.0
28/02:30pm 18.6 16.8 7.1 47 6.1 N 6 13 3 7 - - 0.0
28/02:00pm 18.7 17.4 7.5 48 6.0 WSW 4 9 2 5 - - 0.0
28/01:30pm 18.7 17.2 8.4 51 5.6 NW 6 11 3 6 - - 0.0
28/01:00pm 17.8 16.3 8.4 54 5.1 WNW 6 9 3 5 - - 0.0
28/12:30pm 17.3 15.7 7.9 54 5.0 NW 6 11 3 6 - - 0.0
28/12:00pm 17.1 15.2 7.5 53 5.1 NW 7 13 4 7 - - 0.0
28/11:30am 18.2 15.9 7.6 50 5.7 NNW 9 17 5 9 - - 0.0
28/11:00am 16.4 14.8 8.1 58 4.4 NNE 6 9 3 5 - - 0.0
28/10:30am 15.6 14.4 7.9 60 4.1 NNE 4 7 2 4 - - 0.0
28/10:00am 14.9 13.6 7.7 62 3.8 N 4 9 2 5 - - 0.0
28/09:30am 15.2 13.9 7.7 61 3.9 N 4 9 2 5 - - 0.0
28/09:00am 14.3 13.0 7.6 64 3.5 N 4 11 2 6 - - -
28/08:30am 14.0 13.1 7.8 66 3.2 N 2 6 1 3 - - -
28/08:00am 13.7 12.3 7.2 65 3.3 N 4 7 2 4 - - -
28/07:30am 13.6 11.6 7.2 65 3.3 N 7 13 4 7 - - -
28/07:00am 13.6 11.8 7.2 65 3.3 N 6 13 3 7 - - -
28/06:30am 13.6 11.8 7.2 65 3.3 N 6 11 3 6 - - -
28/06:00am 13.6 11.8 7.2 65 3.3 N 6 17 3 9 - - -
28/05:30am 13.6 11.8 7.2 65 3.3 N 6 11 3 6 - - -
28/05:00am 13.4 11.6 7.2 66 3.2 NNE 6 9 3 5 - - -
28/04:30am 13.6 11.6 7.2 65 3.3 NNE 7 13 4 7 - - -
28/04:00am 13.7 11.7 7.0 64 3.4 NNE 7 15 4 8 - - -
28/03:30am 13.6 11.6 7.2 65 3.3 N 7 11 4 6 - - -
28/03:00am 13.7 11.7 7.0 64 3.4 NNE 7 15 4 8 - - 0.0
28/02:30am 14.0 11.6 7.1 63 3.6 N 9 19 5 10 - - -
28/02:00am 14.1 11.7 6.9 62 3.7 N 9 17 5 9 - - -
28/01:30am 14.2 11.8 7.0 62 3.7 N 9 17 5 9 - - -
28/01:00am 13.5 11.5 7.1 65 3.3 NNE 7 15 4 8 - - -
28/12:30am 13.8 11.8 7.3 65 3.4 N 7 13 4 7 - - -
28/12:00am 14.4 12.4 7.2 62 3.7 NNE 7 13 4 7 - - -
 
Date/Time
EST
Temp
°C
App
Temp
°C
Dew
Point
Rel
Hum
%
Delta-T
°C
Wind Press
QNH
hPa
Press
MSL
hPa
Rain
since 9 am
mm
Dir
 
Spd
km/h
Gust
km/h
Spd
kts
Gust
kts
27/11:30pm 14.2 12.2 7.0 62 3.7 NNE 7 17 4 9 - - -
27/11:00pm 14.4 12.4 7.0 61 3.8 NNE 7 11 4 6 - - -
27/10:30pm 14.4 12.4 7.2 62 3.7 NNE 7 13 4 7 - - -
27/10:00pm 14.4 12.4 7.2 62 3.7 NNE 7 11 4 6 - - -
27/09:30pm 14.8 12.9 7.4 61 3.9 NNE 7 13 4 7 - - -
27/09:00pm 14.6 12.7 7.4 62 3.7 NNE 7 11 4 6 - - 0.0
27/08:30pm 14.6 12.6 7.2 61 3.8 NNE 7 15 4 8 - - -
27/08:00pm 14.7 12.9 7.3 61 3.8 NNE 6 9 3 5 - - -
27/07:30pm 14.4 12.5 6.5 59 4.0 NNE 6 7 3 4 - - -
27/07:00pm 14.7 12.8 6.8 59 4.1 NNE 6 9 3 5 - - -
27/06:30pm 15.1 13.2 6.7 57 4.3 NNE 6 11 3 6 - - -
27/06:00pm 15.2 13.3 6.7 57 4.4 NNE 6 9 3 5 - - -
27/05:30pm 15.3 13.4 6.6 56 4.5 NNE 6 11 3 6 - - -

Other Formats:

Comma delimited format used in spreadsheet applications
http://www.bom.gov.au/fwo/IDV60801/IDV60801.94878.axf

JavaScript Object Notation format (JSON) in row-major order
http://www.bom.gov.au/fwo/IDV60801/IDV60801.94878.json